Time;durP1;ratioP1;P1;durP2;ratioP2;P2;SDS_P1;SDS_P2;PMS_P1;PMS_P2;Temp;Humidity;BMP_temperature;BMP_pressure;BME280_temperature;BME280_humidity;BME280_pressure;Samples;Min_cycle;Max_cycle;Signal;HPM_P1;HPM_P2
2023/01/27 05:04:12;;;;;;;14.93;10.20;;;0.10;99.90;;;;;;5934101;22;20224;-63
2023/01/27 05:06:38;;;;;;;15.50;9.00;;;0.20;99.90;;;;;;5035882;28;20178;-65
2023/01/27 05:09:03;;;;;;;13.93;9.20;;;0.20;99.90;;;;;;5035883;28;20179;-65
2023/01/27 05:11:29;;;;;;;11.80;7.83;;;0.20;99.90;;;;;;5035883;28;20186;-65
2023/01/27 05:13:54;;;;;;;16.10;9.80;;;0.20;99.90;;;;;;5035423;28;20203;-65
2023/01/27 05:16:23;;;;;;;10.33;7.90;;;0.20;99.90;;;;;;5035815;28;20186;-63
2023/01/27 05:18:50;;;;;;;12.98;7.55;;;0.20;99.90;;;;;;5035575;28;20257;-64
2023/01/27 05:21:22;;;;;;;11.40;6.78;;;0.20;99.90;;;;;;5035799;28;20173;-65
2023/01/27 05:23:48;;;;;;;14.95;8.48;;;0.20;99.90;;;;;;5034985;28;20190;-64
2023/01/27 05:26:19;;;;;;;12.40;8.23;;;0.20;99.90;;;;;;5035684;28;20163;-63
2023/01/27 05:28:47;;;;;;;10.32;8.77;;;0.20;99.90;;;;;;5034321;28;20695;-64
2023/01/27 05:31:14;;;;;;;14.13;6.97;;;0.20;99.90;;;;;;5035402;28;20178;-64
2023/01/27 05:33:40;;;;;;;10.02;7.80;;;0.20;99.90;;;;;;5034277;28;20591;-65
2023/01/27 05:36:10;;;;;;;13.82;7.88;;;0.20;99.90;;;;;;5035160;28;20522;-64
2023/01/27 05:38:35;;;;;;;10.05;6.63;;;0.20;99.90;;;;;;5035452;28;20216;-65
2023/01/27 05:41:03;;;;;;;19.70;8.30;;;0.10;99.90;;;;;;5035236;28;20697;-62
2023/01/27 05:43:31;;;;;;;17.38;9.68;;;0.20;99.90;;;;;;5034873;28;20224;-62
2023/01/27 05:46:08;;;;;;;13.68;7.70;;;0.10;99.90;;;;;;5035107;28;20627;-64
2023/01/27 05:48:39;;;;;;;14.30;9.95;;;0.10;99.90;;;;;;5035135;28;20252;-63
2023/01/27 05:51:05;;;;;;;10.07;8.25;;;0.10;99.90;;;;;;5035094;28;20220;-64
2023/01/27 05:53:31;;;;;;;10.63;8.00;;;0.10;99.90;;;;;;5034628;28;20228;-64
2023/01/27 05:55:57;;;;;;;9.55;6.95;;;0.10;99.90;;;;;;5033773;28;20177;-64
2023/01/27 05:58:24;;;;;;;11.90;7.20;;;0.20;99.90;;;;;;5034864;28;20204;-64
2023/01/27 06:00:50;;;;;;;11.70;8.20;;;0.20;99.90;;;;;;5035025;28;20190;-64
2023/01/27 06:03:16;;;;;;;11.77;6.88;;;0.20;99.90;;;;;;5032922;28;20580;-63
2023/01/27 06:05:53;;;;;;;10.37;6.80;;;0.20;99.90;;;;;;5033352;28;20244;-64
2023/01/27 06:08:19;;;;;;;10.70;7.57;;;0.10;99.90;;;;;;5034740;28;20169;-61
2023/01/27 06:10:45;;;;;;;11.35;7.03;;;0.10;99.90;;;;;;5034488;28;20188;-65
2023/01/27 06:13:11;;;;;;;11.63;7.27;;;0.10;99.90;;;;;;5034290;28;20174;-64
2023/01/27 06:15:43;;;;;;;8.02;6.32;;;0.10;99.90;;;;;;5034414;28;20189;-64
2023/01/27 06:18:09;;;;;;;14.50;7.50;;;0.10;99.90;;;;;;5034779;28;20206;-64
2023/01/27 06:20:35;;;;;;;11.13;7.70;;;0.10;99.90;;;;;;5034577;28;20190;-64
2023/01/27 06:23:00;;;;;;;13.43;7.47;;;0.20;99.90;;;;;;5033661;28;20268;-63
2023/01/27 06:25:26;;;;;;;14.37;6.70;;;0.10;99.90;;;;;;5034031;28;20210;-64
2023/01/27 06:27:56;;;;;;;10.60;6.50;;;0.20;99.90;;;;;;5034464;28;20205;-61
2023/01/27 06:30:27;;;;;;;16.80;7.30;;;0.20;99.90;;;;;;5033517;28;20257;-63
2023/01/27 06:32:52;;;;;;;8.60;7.80;;;0.20;99.90;;;;;;5032352;28;20185;-62
2023/01/27 06:35:18;;;;;;;11.20;7.20;;;0.20;99.90;;;;;;5034132;28;20204;-61
2023/01/27 06:37:43;;;;;;;11.63;7.80;;;0.20;99.90;;;;;;5034291;28;20238;-62
2023/01/27 06:40:10;;;;;;;11.73;7.33;;;0.20;99.90;;;;;;5034823;28;20173;-63
2023/01/27 06:42:35;;;;;;;10.27;6.45;;;0.30;99.90;;;;;;5035053;28;20174;-63
2023/01/27 06:45:01;;;;;;;11.90;8.80;;;0.30;99.90;;;;;;5035594;28;20674;-64
2023/01/27 06:47:26;;;;;;;11.70;7.67;;;0.30;99.90;;;;;;5036493;28;20253;-64
2023/01/27 06:49:52;;;;;;;11.93;8.57;;;0.30;99.90;;;;;;5035654;28;20204;-63
2023/01/27 06:52:20;;;;;;;12.53;7.77;;;0.30;99.90;;;;;;5035349;28;20680;-65
2023/01/27 06:54:46;;;;;;;14.82;7.88;;;0.30;99.90;;;;;;5033651;28;20186;-65
2023/01/27 06:57:11;;;;;;;17.47;8.83;;;0.30;99.90;;;;;;5033566;28;20281;-64
2023/01/27 06:59:37;;;;;;;13.13;6.90;;;0.30;99.90;;;;;;5032481;28;20173;-64
2023/01/27 07:02:02;;;;;;;13.43;7.33;;;0.30;99.90;;;;;;5033755;28;20179;-66
2023/01/27 07:04:28;;;;;;;8.33;6.07;;;0.30;99.90;;;;;;5032973;28;20667;-64
2023/01/27 07:06:54;;;;;;;9.00;7.83;;;0.40;99.90;;;;;;5033887;28;20174;-64
2023/01/27 07:09:19;;;;;;;10.07;7.17;;;0.40;99.90;;;;;;5034013;28;20770;-64
2023/01/27 07:11:45;;;;;;;11.50;6.67;;;0.40;99.90;;;;;;5033748;28;20180;-66
2023/01/27 07:14:11;;;;;;;8.77;7.03;;;0.40;99.90;;;;;;5032388;28;20543;-65
2023/01/27 07:16:36;;;;;;;14.03;7.80;;;0.40;99.90;;;;;;5033058;28;20205;-65
2023/01/27 07:19:02;;;;;;;11.73;9.43;;;0.40;99.90;;;;;;5033090;28;20268;-64
2023/01/27 07:21:27;;;;;;;8.00;6.40;;;0.40;99.90;;;;;;5032401;28;20208;-64
2023/01/27 07:23:53;;;;;;;8.93;6.30;;;0.40;99.90;;;;;;5031360;28;20251;-63
2023/01/27 07:26:19;;;;;;;11.77;6.47;;;0.40;99.90;;;;;;5033396;28;20178;-63
2023/01/27 07:28:44;;;;;;;11.30;8.20;;;0.50;99.90;;;;;;5033508;28;20170;-64
2023/01/27 07:31:10;;;;;;;11.77;7.13;;;0.50;99.90;;;;;;5033502;28;20170;-64
2023/01/27 07:33:36;;;;;;;7.97;5.60;;;0.50;99.90;;;;;;5031682;28;20177;-64
2023/01/27 07:36:01;;;;;;;7.85;5.03;;;0.50;99.90;;;;;;5033231;28;20181;-63
2023/01/27 07:38:27;;;;;;;6.53;5.17;;;0.50;99.90;;;;;;5020768;28;20212;-63
2023/01/27 07:40:53;;;;;;;6.90;4.77;;;0.50;99.90;;;;;;5034292;28;20189;-63
2023/01/27 07:43:19;;;;;;;4.77;4.13;;;0.50;99.90;;;;;;5039057;28;20197;-63
2023/01/27 07:45:47;;;;;;;6.37;4.10;;;0.50;99.90;;;;;;5039618;28;20196;-63
2023/01/27 07:48:13;;;;;;;5.65;4.13;;;0.50;99.90;;;;;;5039939;28;20166;-63
2023/01/27 07:50:40;;;;;;;5.97;4.77;;;0.50;99.90;;;;;;5038089;28;20219;-63
2023/01/27 07:53:06;;;;;;;5.35;4.78;;;0.40;99.90;;;;;;5019666;28;20759;-63
2023/01/27 07:55:32;;;;;;;6.77;4.63;;;0.40;99.90;;;;;;5020102;28;20190;-62
2023/01/27 07:57:58;;;;;;;6.53;4.45;;;0.40;99.90;;;;;;5039117;28;20498;-62
2023/01/27 08:00:24;;;;;;;7.57;5.50;;;0.40;99.90;;;;;;5039248;28;20253;-62
2023/01/27 08:02:51;;;;;;;11.88;4.53;;;0.50;99.90;;;;;;5038898;28;20232;-63
2023/01/27 08:05:16;;;;;;;5.38;4.40;;;0.50;99.90;;;;;;5038735;28;20284;-62
2023/01/27 08:07:42;;;;;;;8.80;5.20;;;0.50;99.90;;;;;;5039268;28;20204;-64
2023/01/27 08:10:09;;;;;;;5.27;3.73;;;0.50;99.90;;;;;;5039209;28;20178;-69
2023/01/27 08:12:34;;;;;;;8.77;4.85;;;0.50;99.90;;;;;;5039662;28;20527;-70
2023/01/27 08:15:00;;;;;;;6.63;3.90;;;0.60;99.90;;;;;;5039144;28;20190;-70
2023/01/27 08:17:26;;;;;;;6.77;5.00;;;0.60;99.90;;;;;;5032123;28;20634;-61
2023/01/27 08:19:51;;;;;;;6.10;4.23;;;0.60;99.90;;;;;;5032619;28;20186;-64
2023/01/27 08:22:20;;;;;;;9.70;6.20;;;0.60;99.90;;;;;;5037475;28;20174;-64
2023/01/27 08:24:47;;;;;;;10.52;4.88;;;0.60;99.90;;;;;;5037851;28;20221;-64
2023/01/27 08:27:13;;;;;;;8.20;5.20;;;0.50;99.90;;;;;;5037850;28;20201;-64
2023/01/27 08:29:38;;;;;;;6.13;4.70;;;0.50;99.90;;;;;;5037299;28;20224;-64
2023/01/27 08:32:04;;;;;;;8.20;6.00;;;0.50;99.90;;;;;;5038971;28;20257;-64
2023/01/27 08:34:30;;;;;;;6.60;5.07;;;0.50;99.90;;;;;;5038545;28;20231;-69
2023/01/27 08:36:56;;;;;;;6.37;5.17;;;0.40;99.90;;;;;;5039141;28;20189;-63
2023/01/27 08:39:21;;;;;;;7.33;4.90;;;0.50;99.90;;;;;;5039185;28;20435;-64
2023/01/27 08:41:47;;;;;;;7.83;4.47;;;0.50;99.90;;;;;;5038982;28;20166;-64
2023/01/27 08:44:13;;;;;;;7.53;5.20;;;0.50;99.90;;;;;;5030959;28;20205;-64
2023/01/27 08:46:38;;;;;;;7.00;4.70;;;0.50;99.90;;;;;;5025779;28;20182;-63
2023/01/27 08:49:04;;;;;;;9.87;5.33;;;0.50;99.90;;;;;;5038792;28;20174;-63
2023/01/27 08:51:29;;;;;;;12.07;4.97;;;0.50;99.90;;;;;;5038723;28;20180;-64
2023/01/27 08:53:55;;;;;;;10.00;6.17;;;0.60;99.90;;;;;;5034768;28;20701;-64
2023/01/27 08:56:21;;;;;;;11.20;7.57;;;0.50;99.90;;;;;;5035567;28;20222;-64
2023/01/27 08:58:47;;;;;;;10.20;6.13;;;0.50;99.90;;;;;;5034815;28;20226;-63
2023/01/27 09:01:16;;;;;;;7.72;6.93;;;0.50;99.90;;;;;;5035511;28;20514;-63
2023/01/27 09:03:41;;;;;;;13.25;7.00;;;0.50;99.90;;;;;;5035233;28;20166;-64
2023/01/27 09:06:09;;;;;;;14.33;7.13;;;0.50;99.90;;;;;;5035460;28;20240;-64
2023/01/27 09:08:35;;;;;;;10.82;6.20;;;0.50;99.90;;;;;;5035767;28;20589;-64
2023/01/27 09:11:10;;;;;;;11.57;8.13;;;0.50;99.90;;;;;;5035971;28;20265;-65
2023/01/27 09:13:36;;;;;;;9.70;5.47;;;0.50;99.90;;;;;;5034166;28;20917;-64
2023/01/27 09:16:01;;;;;;;10.23;6.60;;;0.50;99.90;;;;;;5035607;28;20192;-64
2023/01/27 09:18:27;;;;;;;9.57;5.37;;;0.50;99.90;;;;;;5034799;28;20667;-64
2023/01/27 09:20:53;;;;;;;5.97;4.73;;;0.50;99.90;;;;;;5035004;28;20170;-65
2023/01/27 09:23:18;;;;;;;8.73;6.43;;;0.60;99.90;;;;;;5033665;28;20174;-65
2023/01/27 09:25:44;;;;;;;13.60;7.53;;;0.70;99.90;;;;;;5035016;28;20462;-65
2023/01/27 09:28:15;;;;;;;8.57;6.00;;;0.70;99.90;;;;;;5029954;28;20644;-64
2023/01/27 09:30:45;;;;;;;16.25;6.07;;;0.70;99.90;;;;;;5015583;28;20178;-65
2023/01/27 09:33:12;;;;;;;9.60;6.25;;;0.80;99.90;;;;;;5015183;28;20185;-65
2023/01/27 09:36:09;;;;;;;9.10;6.53;;;0.80;99.90;;;;;;5015602;28;20690;-64
2023/01/27 09:38:39;;;;;;;9.95;4.97;;;0.80;99.90;;;;;;5015340;28;20600;-66
2023/01/27 09:41:30;;;;;;;8.57;6.07;;;0.90;99.90;;;;;;5015523;28;20221;-66
2023/01/27 09:44:04;;;;;;;10.38;6.75;;;1.00;99.90;;;;;;5015200;28;20202;-65
2023/01/27 09:46:54;;;;;;;7.90;5.45;;;1.00;99.90;;;;;;5015553;28;20536;-65
2023/01/27 09:49:59;;;;;;;9.85;6.53;;;1.10;99.90;;;;;;5015399;28;20175;-65
2023/01/27 09:53:00;;;;;;;12.85;5.55;;;1.20;99.90;;;;;;5006784;28;20220;-66
2023/01/27 09:55:44;;;;;;;9.05;5.22;;;1.20;99.90;;;;;;5015055;28;20194;-64
2023/01/27 09:58:27;;;;;;;7.78;5.25;;;1.10;99.90;;;;;;5015065;28;20199;-64
2023/01/27 10:01:18;;;;;;;7.93;4.28;;;1.20;99.90;;;;;;5015543;28;20659;-65
2023/01/27 10:04:08;;;;;;;9.00;5.43;;;1.20;99.90;;;;;;5014629;28;20167;-65
2023/01/27 10:06:47;;;;;;;10.48;4.75;;;1.40;99.90;;;;;;5015039;28;20217;-64
2023/01/27 10:09:18;;;;;;;10.02;5.15;;;1.40;99.90;;;;;;5015248;28;20163;-65
2023/01/27 10:12:06;;;;;;;7.65;4.22;;;1.30;99.90;;;;;;5018596;28;20178;-65
2023/01/27 10:14:51;;;;;;;9.52;5.45;;;1.40;99.90;;;;;;5014473;28;20649;-65
2023/01/27 10:17:50;;;;;;;7.50;4.85;;;1.40;99.90;;;;;;5014769;28;20198;-65
2023/01/27 10:20:42;;;;;;;12.07;4.50;;;1.50;99.90;;;;;;5014742;28;20621;-65
2023/01/27 10:23:53;;;;;;;12.38;5.30;;;1.40;99.90;;;;;;5014801;28;20166;-65
2023/01/27 10:26:49;;;;;;;6.47;3.60;;;1.40;99.90;;;;;;5013445;28;20225;-65
2023/01/27 10:29:25;;;;;;;10.63;6.63;;;1.40;99.90;;;;;;5032108;28;20178;-65
2023/01/27 10:32:06;;;;;;;6.60;5.07;;;1.40;99.90;;;;;;5033790;28;20568;-67
2023/01/27 10:34:35;;;;;;;8.20;5.30;;;1.50;99.90;;;;;;5033690;28;20182;-66
2023/01/27 10:37:21;;;;;;;6.40;3.95;;;1.50;99.90;;;;;;5033740;28;20482;-65
2023/01/27 10:39:52;;;;;;;6.60;4.57;;;1.60;99.90;;;;;;5034178;28;20162;-66
2023/01/27 10:42:32;;;;;;;10.45;4.95;;;1.60;99.90;;;;;;5033357;28;20174;-65
2023/01/27 10:45:06;;;;;;;5.13;3.70;;;1.60;99.90;;;;;;5033648;28;20220;-66
2023/01/27 10:48:01;;;;;;;4.97;3.17;;;1.70;99.90;;;;;;5034031;28;20177;-66
2023/01/27 10:50:32;;;;;;;6.30;3.78;;;1.70;99.90;;;;;;5034024;28;20185;-65
2023/01/27 10:53:05;;;;;;;5.20;3.15;;;1.70;99.90;;;;;;5033141;28;20213;-66
2023/01/27 10:55:40;;;;;;;4.13;3.50;;;1.70;99.90;;;;;;5033188;28;20638;-65
2023/01/27 10:58:19;;;;;;;7.95;3.95;;;1.80;99.90;;;;;;5034050;28;20189;-65
2023/01/27 11:00:47;;;;;;;6.10;4.60;;;1.70;99.90;;;;;;5033959;28;20201;-65
2023/01/27 11:03:25;;;;;;;3.92;3.53;;;1.70;99.90;;;;;;5033435;28;20177;-65
2023/01/27 11:06:03;;;;;;;7.15;3.92;;;1.70;99.90;;;;;;5033569;28;20277;-65
2023/01/27 11:08:34;;;;;;;3.83;3.38;;;1.70;99.90;;;;;;5033765;28;20178;-65
2023/01/27 11:13:49;;;;;;;6.70;3.80;;;1.60;99.90;;;;;;5016631;28;20213;-65
2023/01/27 11:16:18;;;;;;;4.68;3.38;;;1.60;99.90;;;;;;5033030;28;20193;-64
2023/01/27 11:18:48;;;;;;;6.78;3.40;;;1.60;99.90;;;;;;5032917;28;20602;-63
2023/01/27 11:21:20;;;;;;;5.22;4.32;;;1.70;99.90;;;;;;5032915;28;20170;-63
2023/01/27 11:23:54;;;;;;;5.00;3.80;;;1.70;99.90;;;;;;5028497;28;20256;-63
2023/01/27 11:26:43;;;;;;;4.93;3.15;;;1.70;99.90;;;;;;5031138;28;20178;-64
2023/01/27 11:29:18;;;;;;;7.18;4.40;;;1.80;99.90;;;;;;5033360;28;20177;-64
2023/01/27 11:32:18;;;;;;;7.05;4.75;;;1.80;99.90;;;;;;5033575;28;20174;-64
2023/01/27 11:35:12;;;;;;;4.35;4.05;;;1.90;99.90;;;;;;5032958;28;20189;-64
2023/01/27 11:37:38;;;;;;;5.43;3.45;;;2.10;99.90;;;;;;5029999;28;20252;-63
2023/01/27 11:40:17;;;;;;;5.80;3.55;;;2.10;99.90;;;;;;5032541;28;20228;-65
2023/01/27 11:42:43;;;;;;;7.07;5.32;;;2.10;99.90;;;;;;5032646;28;20208;-62
2023/01/27 11:45:15;;;;;;;6.47;4.57;;;2.10;99.90;;;;;;5032651;28;20675;-64
2023/01/27 11:47:42;;;;;;;6.53;4.68;;;2.10;99.90;;;;;;5033103;28;20312;-65
2023/01/27 11:50:16;;;;;;;6.85;3.25;;;2.10;99.90;;;;;;5032755;28;20185;-65
2023/01/27 11:52:45;;;;;;;4.47;4.05;;;2.20;99.90;;;;;;5028014;28;20265;-64
2023/01/27 11:55:13;;;;;;;9.20;4.65;;;2.20;99.90;;;;;;5013256;28;20672;-64
2023/01/27 11:57:51;;;;;;;8.43;3.97;;;2.10;99.90;;;;;;5026079;28;20202;-63
2023/01/27 12:00:23;;;;;;;7.78;3.78;;;2.20;99.90;;;;;;5033025;28;20220;-63
2023/01/27 12:03:15;;;;;;;10.45;6.70;;;2.10;99.90;;;;;;5032424;28;20691;-62
2023/01/27 12:05:45;;;;;;;6.50;4.80;;;2.10;99.90;;;;;;5032915;28;20213;-62
2023/01/27 12:08:10;;;;;;;5.53;4.65;;;2.10;99.90;;;;;;5028501;28;20175;-63
2023/01/27 12:10:41;;;;;;;9.70;4.57;;;2.10;99.90;;;;;;5033140;28;20289;-63
2023/01/27 12:13:15;;;;;;;5.35;4.35;;;2.00;99.90;;;;;;5015076;28;20490;-63
2023/01/27 12:15:51;;;;;;;8.13;5.88;;;2.00;99.90;;;;;;5030407;28;20243;-63
2023/01/27 12:18:17;;;;;;;9.65;4.93;;;2.00;99.90;;;;;;5021819;28;20197;-62
2023/01/27 12:20:49;;;;;;;11.40;5.53;;;1.90;99.90;;;;;;5022580;28;20167;-63
2023/01/27 12:23:28;;;;;;;7.88;5.20;;;1.90;99.90;;;;;;5019900;28;20274;-62
2023/01/27 12:26:01;;;;;;;6.60;4.80;;;1.90;99.90;;;;;;5023838;28;20206;-62
2023/01/27 12:28:46;;;;;;;9.50;6.50;;;1.80;99.90;;;;;;5023815;28;20584;-63
2023/01/27 12:31:19;;;;;;;8.98;5.35;;;1.80;99.90;;;;;;5026745;28;20178;-63
2023/01/27 12:33:49;;;;;;;17.00;5.85;;;1.80;99.90;;;;;;5026000;28;20531;-63
2023/01/27 12:36:18;;;;;;;8.25;4.63;;;1.80;99.90;;;;;;5027281;28;20175;-61
2023/01/27 12:38:55;;;;;;;6.38;4.57;;;1.90;99.90;;;;;;5025443;28;20198;-63
2023/01/27 12:41:27;;;;;;;6.25;5.68;;;1.90;99.90;;;;;;5024979;28;20171;-62
2023/01/27 12:44:17;;;;;;;6.43;4.80;;;1.90;99.90;;;;;;5024467;28;20189;-63
2023/01/27 12:47:03;;;;;;;8.02;4.13;;;1.90;99.90;;;;;;5028741;28;20189;-63
2023/01/27 12:49:35;;;;;;;7.72;5.30;;;1.90;99.90;;;;;;5033360;28;20200;-64
2023/01/27 12:52:03;;;;;;;10.10;6.43;;;1.90;99.90;;;;;;5033396;28;20505;-64
2023/01/27 12:54:31;;;;;;;6.28;4.75;;;1.90;99.90;;;;;;5035545;28;20603;-63
2023/01/27 12:57:03;;;;;;;7.38;5.72;;;1.90;99.90;;;;;;5034188;28;20660;-63
2023/01/27 12:59:29;;;;;;;7.93;5.47;;;1.90;99.90;;;;;;5034257;28;20517;-64
2023/01/27 13:02:16;;;;;;;8.15;5.43;;;1.90;99.90;;;;;;5035571;28;20170;-66
2023/01/27 13:04:44;;;;;;;7.97;5.28;;;1.90;99.90;;;;;;5032426;28;20730;-68
2023/01/27 13:07:16;;;;;;;8.40;5.28;;;1.90;99.90;;;;;;5036115;28;20170;-69
2023/01/27 13:09:53;;;;;;;11.43;5.22;;;1.90;99.90;;;;;;5035945;28;20538;-69
2023/01/27 13:12:21;;;;;;;10.05;5.75;;;1.80;99.90;;;;;;5036108;28;20184;-68
2023/01/27 13:15:12;;;;;;;14.15;6.60;;;1.80;99.90;;;;;;5035391;28;20256;-67
2023/01/27 13:17:44;;;;;;;7.25;5.07;;;1.80;99.90;;;;;;5035204;28;20275;-69
2023/01/27 13:20:30;;;;;;;7.60;4.82;;;1.90;99.90;;;;;;5035709;28;20634;-69
2023/01/27 13:23:01;;;;;;;5.55;3.97;;;1.80;99.90;;;;;;5038399;28;20166;-64
2023/01/27 13:25:41;;;;;;;15.48;7.03;;;1.90;99.90;;;;;;5039404;28;20197;-64
2023/01/27 13:28:14;;;;;;;12.90;7.28;;;1.80;99.90;;;;;;5037627;28;20170;-65
2023/01/27 13:30:45;;;;;;;8.75;6.50;;;1.90;99.90;;;;;;5031548;28;20671;-65
2023/01/27 13:33:34;;;;;;;7.60;6.18;;;1.90;99.90;;;;;;5019588;28;20166;-65
2023/01/27 13:36:19;;;;;;;9.30;6.25;;;1.90;99.90;;;;;;5020329;28;20233;-66
2023/01/27 13:39:13;;;;;;;12.98;6.60;;;1.90;99.90;;;;;;5016484;28;20198;-65
2023/01/27 13:41:47;;;;;;;14.20;5.80;;;1.90;99.90;;;;;;5016268;28;20221;-66
2023/01/27 13:44:39;;;;;;;8.13;5.43;;;1.80;99.90;;;;;;5015262;28;20197;-65
2023/01/27 13:47:15;;;;;;;8.63;5.25;;;1.80;99.90;;;;;;5008770;28;20517;-65
2023/01/27 13:49:46;;;;;;;9.20;5.88;;;1.80;99.90;;;;;;5017459;28;20167;-65
2023/01/27 13:52:12;;;;;;;10.15;7.28;;;1.80;99.90;;;;;;5016252;28;20174;-65
2023/01/27 13:54:38;;;;;;;5.75;5.15;;;1.70;99.90;;;;;;5032338;28;20206;-65
2023/01/27 13:58:00;;;;;;;11.95;6.15;;;1.70;99.90;;;;;;5016783;28;20216;-65
2023/01/27 14:00:45;;;;;;;9.35;7.10;;;1.60;99.90;;;;;;4994350;28;20270;-65
2023/01/27 14:03:28;;;;;;;12.00;7.68;;;1.70;99.90;;;;;;4993030;28;20179;-65
2023/01/27 14:06:28;;;;;;;15.52;7.43;;;1.70;99.90;;;;;;4993106;28;20273;-65
2023/01/27 14:09:14;;;;;;;14.60;8.02;;;1.70;99.90;;;;;;4993404;28;20638;-64
2023/01/27 14:11:59;;;;;;;11.10;7.95;;;1.60;99.90;;;;;;4993454;28;20223;-64
2023/01/27 14:14:24;;;;;;;9.52;6.43;;;1.60;99.90;;;;;;4992992;28;20286;-64
2023/01/27 14:17:14;;;;;;;13.30;7.00;;;1.60;99.90;;;;;;4992970;28;20274;-64
2023/01/27 14:19:46;;;;;;;7.60;5.93;;;1.60;99.90;;;;;;4993279;28;20194;-64
2023/01/27 14:22:31;;;;;;;10.57;6.75;;;1.60;99.90;;;;;;4993296;28;20167;-64
2023/01/27 14:25:12;;;;;;;8.75;6.55;;;1.60;99.90;;;;;;4976466;28;20207;-64
2023/01/27 14:27:44;;;;;;;9.90;7.65;;;1.60;99.90;;;;;;4993265;28;20194;-64
2023/01/27 14:30:34;;;;;;;10.95;7.78;;;1.60;99.90;;;;;;4994821;28;20226;-64
2023/01/27 14:33:21;;;;;;;7.10;5.75;;;1.60;99.90;;;;;;5014310;28;20253;-64
2023/01/27 14:36:12;;;;;;;9.15;7.18;;;1.60;99.90;;;;;;5014756;28;20675;-64
2023/01/27 14:38:53;;;;;;;11.73;6.53;;;1.60;99.90;;;;;;5009660;28;20234;-66
2023/01/27 14:41:32;;;;;;;9.52;6.38;;;1.60;99.90;;;;;;5014967;28;20174;-65
2023/01/27 14:44:23;;;;;;;7.65;5.93;;;1.60;99.90;;;;;;5014139;28;20616;-66
2023/01/27 14:47:16;;;;;;;7.90;5.72;;;1.60;99.90;;;;;;5014440;28;20182;-65
2023/01/27 14:50:03;;;;;;;9.05;6.43;;;1.50;99.90;;;;;;5014456;28;20169;-65
2023/01/27 14:52:41;;;;;;;7.50;5.82;;;1.50;99.90;;;;;;5013793;28;20173;-64
2023/01/27 14:55:21;;;;;;;11.10;8.07;;;1.50;99.90;;;;;;5014059;28;20186;-65
2023/01/27 14:58:17;;;;;;;8.93;6.20;;;1.50;99.90;;;;;;5014081;28;20563;-64
2023/01/27 15:01:02;;;;;;;5.93;5.32;;;1.60;99.90;;;;;;5012797;28;20236;-64
2023/01/27 15:04:01;;;;;;;7.05;5.00;;;1.60;99.90;;;;;;5013943;28;20346;-65
2023/01/27 15:06:38;;;;;;;7.60;5.82;;;1.60;99.90;;;;;;5013703;28;20186;-65
2023/01/27 15:09:17;;;;;;;10.50;6.63;;;1.60;99.90;;;;;;5023657;28;20180;-65
2023/01/27 15:11:50;;;;;;;8.73;4.72;;;1.60;99.90;;;;;;5033854;28;20172;-65
2023/01/27 15:14:41;;;;;;;10.32;7.38;;;1.60;99.90;;;;;;5032880;28;20202;-65
2023/01/27 15:17:28;;;;;;;7.60;5.30;;;1.60;99.90;;;;;;5033232;28;20603;-63
2023/01/27 15:20:19;;;;;;;7.00;5.40;;;1.60;99.90;;;;;;5025045;28;20301;-64
2023/01/27 15:22:58;;;;;;;8.68;6.07;;;1.60;99.90;;;;;;5033341;28;20174;-65
2023/01/27 15:25:39;;;;;;;11.35;6.35;;;1.60;99.90;;;;;;5033660;28;20186;-64
2023/01/27 15:28:12;;;;;;;7.55;5.70;;;1.60;99.90;;;;;;5033600;28;20496;-63
2023/01/27 15:30:39;;;;;;;7.90;6.95;;;1.50;99.90;;;;;;5024998;28;20197;-67
2023/01/27 15:33:43;;;;;;;5.90;4.95;;;1.50;99.90;;;;;;5032162;28;20209;-65
2023/01/27 15:36:28;;;;;;;8.65;5.72;;;1.50;99.90;;;;;;4983310;28;20607;-63
2023/01/27 15:39:09;;;;;;;7.55;6.43;;;1.40;99.90;;;;;;5033168;28;20174;-63
2023/01/27 15:42:02;;;;;;;9.00;6.55;;;1.50;99.90;;;;;;5033007;28;20578;-65
2023/01/27 15:44:30;;;;;;;7.15;5.45;;;1.40;99.90;;;;;;5019023;28;20681;-64
2023/01/27 15:47:11;;;;;;;9.63;7.63;;;1.40;99.90;;;;;;5021188;28;20186;-64
2023/01/27 15:49:48;;;;;;;7.88;5.20;;;1.40;99.90;;;;;;5031693;28;20189;-64
2023/01/27 15:52:27;;;;;;;11.63;7.82;;;1.40;99.90;;;;;;5027720;28;20170;-66
2023/01/27 15:54:56;;;;;;;8.48;5.88;;;1.40;99.90;;;;;;5031145;28;20201;-68
2023/01/27 15:57:27;;;;;;;8.27;5.60;;;1.40;99.90;;;;;;5032783;28;20206;-66
2023/01/27 15:59:57;;;;;;;12.13;5.65;;;1.40;99.90;;;;;;5027952;28;20170;-63
2023/01/27 16:02:28;;;;;;;9.38;5.70;;;1.40;99.90;;;;;;5033990;28;20166;-64
2023/01/27 16:05:19;;;;;;;8.77;5.40;;;1.40;99.90;;;;;;5033722;28;20209;-63
2023/01/27 16:08:00;;;;;;;8.80;6.18;;;1.40;99.90;;;;;;5033620;28;20265;-62
2023/01/27 16:10:33;;;;;;;6.18;4.88;;;1.40;99.90;;;;;;5016316;28;20178;-64
2023/01/27 16:13:20;;;;;;;6.70;5.72;;;1.40;99.90;;;;;;5031407;28;20182;-65
2023/01/27 16:15:45;;;;;;;6.18;5.50;;;1.50;99.90;;;;;;5015966;28;20221;-65
2023/01/27 16:18:11;;;;;;;7.17;5.33;;;1.40;99.90;;;;;;5017323;28;20281;-66
2023/01/27 16:20:47;;;;;;;10.30;6.00;;;1.50;99.90;;;;;;5016508;28;20171;-64
2023/01/27 16:23:35;;;;;;;5.78;5.18;;;1.50;99.90;;;;;;5022254;28;20169;-63
2023/01/27 16:26:31;;;;;;;7.32;4.80;;;1.50;99.90;;;;;;5025529;28;20182;-61
2023/01/27 16:29:25;;;;;;;8.50;6.07;;;1.50;99.90;;;;;;5030290;28;20260;-61
2023/01/27 16:31:54;;;;;;;5.75;5.20;;;1.50;99.90;;;;;;5021410;28;20674;-65
2023/01/27 16:34:30;;;;;;;6.13;5.25;;;1.50;99.90;;;;;;5035759;28;20209;-67
2023/01/27 16:37:24;;;;;;;8.60;5.28;;;1.50;99.90;;;;;;5023514;28;20221;-66
2023/01/27 16:40:13;;;;;;;7.20;5.65;;;1.50;99.90;;;;;;5038878;28;20190;-63
2023/01/27 16:42:51;;;;;;;5.47;4.60;;;1.50;99.90;;;;;;5022459;28;20171;-66
2023/01/27 16:45:24;;;;;;;8.55;6.30;;;1.50;99.90;;;;;;5016415;28;20190;-68
2023/01/27 16:48:14;;;;;;;7.40;4.93;;;1.50;99.90;;;;;;5030262;28;20170;-67
2023/01/27 16:50:41;;;;;;;7.47;4.97;;;1.50;99.90;;;;;;5034819;28;20182;-67
2023/01/27 16:53:25;;;;;;;8.07;6.18;;;1.50;99.90;;;;;;5033918;28;20228;-68
2023/01/27 16:56:03;;;;;;;5.00;4.53;;;1.60;99.90;;;;;;5035807;28;20275;-68
2023/01/27 16:58:29;;;;;;;5.97;5.35;;;1.50;99.90;;;;;;5016841;28;20190;-66
2023/01/27 17:00:56;;;;;;;8.85;5.70;;;1.50;99.90;;;;;;5015901;28;20652;-65
2023/01/27 17:03:36;;;;;;;5.72;4.28;;;1.50;99.90;;;;;;5032352;28;20224;-66
2023/01/27 17:06:05;;;;;;;8.07;6.25;;;1.50;99.90;;;;;;5035774;28;20173;-65
2023/01/27 17:08:34;;;;;;;10.63;6.32;;;1.60;99.90;;;;;;5033304;28;20182;-66
2023/01/27 17:11:07;;;;;;;8.98;5.93;;;1.60;99.90;;;;;;5036052;28;20178;-66
2023/01/27 17:13:55;;;;;;;11.15;5.95;;;1.60;99.90;;;;;;5015843;28;20541;-66
2023/01/27 17:16:28;;;;;;;7.65;5.85;;;1.60;99.90;;;;;;5015177;28;20183;-68
2023/01/27 17:19:00;;;;;;;4.93;4.32;;;1.60;99.90;;;;;;5015558;28;20194;-72
2023/01/27 17:21:37;;;;;;;6.45;5.35;;;1.50;99.90;;;;;;5015798;28;20194;-65
2023/01/27 17:24:10;;;;;;;5.25;4.70;;;1.50;99.90;;;;;;5032933;28;20280;-66
2023/01/27 17:26:36;;;;;;;8.30;6.28;;;1.50;99.90;;;;;;5033576;28;20627;-67
2023/01/27 17:29:02;;;;;;;9.07;6.03;;;1.50;99.90;;;;;;5015445;28;20230;-66
2023/01/27 17:31:28;;;;;;;8.15;6.13;;;1.50;99.90;;;;;;5014172;28;20492;-66
2023/01/27 17:33:59;;;;;;;5.80;4.85;;;1.50;99.90;;;;;;5025826;28;20194;-66
2023/01/27 17:36:25;;;;;;;6.60;5.95;;;1.50;99.90;;;;;;5035253;28;20635;-66
2023/01/27 17:38:54;;;;;;;8.73;5.83;;;1.50;99.90;;;;;;5015767;28;20241;-65
2023/01/27 17:41:25;;;;;;;7.30;5.15;;;1.50;99.90;;;;;;5025123;28;20552;-66
2023/01/27 17:43:52;;;;;;;8.68;5.07;;;1.50;99.90;;;;;;5034576;28;20182;-67
2023/01/27 17:46:20;;;;;;;5.63;4.82;;;1.50;99.90;;;;;;5025029;28;20178;-66
2023/01/27 17:48:51;;;;;;;8.13;7.07;;;1.60;99.90;;;;;;5015129;28;20183;-67
2023/01/27 17:51:36;;;;;;;7.63;4.63;;;1.60;99.90;;;;;;5023870;28;20180;-67
2023/01/27 17:54:26;;;;;;;6.18;4.85;;;1.60;99.90;;;;;;5034600;28;20559;-66
2023/01/27 17:57:16;;;;;;;9.50;6.00;;;1.60;99.90;;;;;;5030330;28;20231;-67
2023/01/27 18:00:22;;;;;;;6.28;5.07;;;1.70;99.90;;;;;;5034707;28;20307;-66
2023/01/27 18:02:57;;;;;;;12.18;5.95;;;1.70;99.90;;;;;;5033103;28;20184;-66
2023/01/27 18:05:27;;;;;;;5.07;4.60;;;1.70;99.90;;;;;;5034173;28;20552;-63
2023/01/27 18:07:53;;;;;;;5.82;5.32;;;1.70;99.90;;;;;;5014886;28;20552;-64
2023/01/27 18:10:26;;;;;;;7.70;5.80;;;1.60;99.90;;;;;;5014793;28;20202;-65
2023/01/27 18:12:53;;;;;;;4.35;4.03;;;1.60;99.90;;;;;;5034161;28;20305;-68
2023/01/27 18:15:41;;;;;;;8.43;5.38;;;1.60;99.90;;;;;;5034261;28;20198;-65
2023/01/27 18:18:28;;;;;;;4.30;4.00;;;1.70;99.90;;;;;;5014497;28;20565;-66
2023/01/27 18:21:02;;;;;;;7.78;6.97;;;1.70;99.90;;;;;;5013175;28;20182;-66
2023/01/27 18:23:32;;;;;;;6.22;4.60;;;1.70;99.90;;;;;;5027404;28;20516;-65
2023/01/27 18:26:37;;;;;;;6.38;4.40;;;1.70;99.90;;;;;;5017461;28;20651;-64
2023/01/27 18:29:21;;;;;;;7.03;4.50;;;1.70;99.90;;;;;;5034058;28;20181;-66
2023/01/27 18:32:07;;;;;;;7.32;5.20;;;1.70;99.90;;;;;;5028651;28;20478;-64
2023/01/27 18:34:51;;;;;;;11.00;5.40;;;1.70;99.90;;;;;;5027972;28;20198;-65
2023/01/27 18:37:31;;;;;;;7.03;4.93;;;1.60;99.90;;;;;;5020770;28;20222;-65